createdAt,value
2023-01-05T00:02:05.072Z,0.90
2023-01-05T00:04:36.116Z,0.90
2023-01-05T00:07:07.088Z,0.90
2023-01-05T00:09:43.555Z,0.90
2023-01-05T00:12:30.434Z,0.90
2023-01-05T00:15:21.121Z,0.90
2023-01-05T00:18:09.405Z,0.90
2023-01-05T00:20:56.667Z,0.90
2023-01-05T00:23:26.862Z,0.90
2023-01-05T00:25:58.670Z,0.90
2023-01-05T00:28:28.928Z,0.90
2023-01-05T00:30:59.705Z,0.90
2023-01-05T00:33:29.997Z,0.90
2023-01-05T00:36:00.294Z,0.90
2023-01-05T00:38:30.689Z,0.90
2023-01-05T00:41:02.548Z,0.90
2023-01-05T00:43:32.781Z,0.90
2023-01-05T00:46:03.802Z,0.90
2023-01-05T00:48:34.352Z,0.90
2023-01-05T00:51:04.652Z,0.90
2023-01-05T00:53:34.904Z,0.80
2023-01-05T00:56:07.167Z,0.80
2023-01-05T00:58:37.944Z,0.80
2023-01-05T01:01:13.455Z,0.80
2023-01-05T01:03:45.464Z,0.80
2023-01-05T01:06:16.852Z,0.70
2023-01-05T01:08:48.131Z,0.70
2023-01-05T01:11:20.317Z,0.70
2023-01-05T01:13:51.046Z,0.70
2023-01-05T01:16:25.582Z,0.70
2023-01-05T01:18:56.865Z,0.70
2023-01-05T01:21:28.142Z,0.60
2023-01-05T01:23:58.306Z,0.60
2023-01-05T01:26:30.179Z,0.60
2023-01-05T01:29:00.538Z,0.60
2023-01-05T01:31:30.816Z,0.60
2023-01-05T01:34:06.313Z,0.60
2023-01-05T01:36:36.557Z,0.60
2023-01-05T01:39:06.831Z,0.50
2023-01-05T01:41:38.863Z,0.50
2023-01-05T01:44:41.408Z,0.50
2023-01-05T01:47:16.577Z,0.50
2023-01-05T01:49:46.902Z,0.50
2023-01-05T01:52:17.678Z,0.50
2023-01-05T01:54:48.713Z,0.50
2023-01-05T01:57:20.725Z,0.50
2023-01-05T01:59:51.075Z,0.50
2023-01-05T02:02:24.333Z,0.50
2023-01-05T02:04:55.362Z,0.50
2023-01-05T02:07:28.669Z,0.50
2023-01-05T02:09:58.908Z,0.50
2023-01-05T02:12:42.378Z,0.50
2023-01-05T02:15:24.360Z,0.50
2023-01-05T02:18:08.036Z,0.50
2023-01-05T02:21:05.312Z,0.40
2023-01-05T02:24:10.461Z,0.40
2023-01-05T02:27:20.133Z,0.40
2023-01-05T02:30:34.745Z,0.40
2023-01-05T02:33:18.494Z,0.40
2023-01-05T02:35:55.288Z,0.30
2023-01-05T02:38:33.010Z,0.30
2023-01-05T02:41:10.297Z,0.30
2023-01-05T02:43:40.699Z,0.30
2023-01-05T02:46:11.560Z,0.30
2023-01-05T02:48:45.112Z,0.30
2023-01-05T02:51:19.420Z,0.20
2023-01-05T02:53:53.036Z,0.20
2023-01-05T02:56:28.013Z,0.20
2023-01-05T02:59:00.854Z,0.10
2023-01-05T03:01:35.899Z,0.00
2023-01-05T03:04:13.994Z,0.10
2023-01-05T03:06:49.077Z,0.00
2023-01-05T03:09:26.556Z,0.00
2023-01-05T03:12:20.495Z,0.00
2023-01-05T03:14:54.856Z,0.10
2023-01-05T03:17:29.025Z,0.10
2023-01-05T03:20:02.423Z,0.00
2023-01-05T03:22:50.585Z,0.00
2023-01-05T03:25:40.782Z,0.00
2023-01-05T03:28:36.579Z,-0.10
2023-01-05T03:31:29.308Z,-0.10
2023-01-05T03:34:22.879Z,-0.20
2023-01-05T03:37:00.546Z,-0.30
2023-01-05T03:39:32.514Z,-0.30
2023-01-05T03:42:03.370Z,-0.40
2023-01-05T03:44:33.528Z,-0.40
2023-01-05T03:47:14.530Z,-0.40
2023-01-05T03:49:45.147Z,-0.30
2023-01-05T03:52:17.076Z,-0.30
2023-01-05T03:54:47.213Z,-0.20
2023-01-05T03:57:17.364Z,-0.20
2023-01-05T03:59:47.538Z,-0.30
2023-01-05T04:02:17.799Z,-0.30
2023-01-05T04:04:48.183Z,-0.20
2023-01-05T04:07:20.116Z,-0.20
2023-01-05T04:09:50.448Z,-0.20
2023-01-05T04:12:20.599Z,-0.20
2023-01-05T04:14:50.767Z,-0.20
2023-01-05T04:17:20.844Z,-0.20
2023-01-05T04:19:51.479Z,-0.20
2023-01-05T04:22:27.188Z,-0.30
2023-01-05T04:24:57.833Z,-0.40
2023-01-05T04:27:28.594Z,-0.50
2023-01-05T04:29:59.016Z,-0.60
2023-01-05T04:32:29.080Z,-0.70
2023-01-05T04:35:00.135Z,-0.70
2023-01-05T04:37:34.440Z,-0.70
2023-01-05T04:40:04.551Z,-0.70
2023-01-05T04:42:34.629Z,-0.80
2023-01-05T04:45:04.841Z,-0.80
2023-01-05T04:47:35.025Z,-0.80
2023-01-05T04:50:05.208Z,-0.90
2023-01-05T04:52:36.880Z,-0.80
2023-01-05T04:55:07.800Z,-0.80
2023-01-05T04:57:38.509Z,-0.80
2023-01-05T05:00:09.812Z,-0.80
2023-01-05T05:02:40.134Z,-0.80
2023-01-05T05:05:11.451Z,-0.80
2023-01-05T05:07:43.528Z,-0.80
2023-01-05T05:10:13.732Z,-0.80
2023-01-05T05:12:43.821Z,-0.80
2023-01-05T05:15:14.809Z,-0.90
2023-01-05T05:17:45.026Z,-1.00
2023-01-05T05:20:15.204Z,-1.00
2023-01-05T05:22:46.959Z,-1.00
2023-01-05T05:25:17.345Z,-1.10
2023-01-05T05:27:47.465Z,-1.10
2023-01-05T05:30:17.660Z,-1.20
2023-01-05T05:32:47.738Z,-1.20
2023-01-05T05:35:18.092Z,-1.20
2023-01-05T05:37:56.036Z,-1.20
2023-01-05T05:40:26.978Z,-1.30
2023-01-05T05:42:57.403Z,-1.30
2023-01-05T05:45:27.565Z,-1.30
2023-01-05T05:47:58.497Z,-1.30
2023-01-05T05:50:28.643Z,-1.30
2023-01-05T05:53:00.371Z,-1.30
2023-01-05T05:55:30.486Z,-1.30
2023-01-05T05:58:00.514Z,-1.30
2023-01-05T06:00:30.758Z,-1.30
2023-01-05T06:03:00.948Z,-1.30
2023-01-05T06:05:31.340Z,-1.30
2023-01-05T06:08:03.060Z,-1.40
2023-01-05T06:10:33.293Z,-1.50
2023-01-05T06:13:03.423Z,-1.50
2023-01-05T06:15:33.559Z,-1.50
2023-01-05T06:18:03.690Z,-1.50
2023-01-05T06:20:33.860Z,-1.50
2023-01-05T06:23:05.586Z,-1.50
2023-01-05T06:25:35.980Z,-1.60
2023-01-05T06:28:06.195Z,-1.60
2023-01-05T06:30:36.339Z,-1.60
2023-01-05T06:33:06.497Z,-1.60
2023-01-05T06:35:36.619Z,-1.60
2023-01-05T06:38:08.295Z,-1.70
2023-01-05T06:40:38.466Z,-1.70
2023-01-05T06:43:08.532Z,-1.70
2023-01-05T06:45:38.695Z,-1.80
2023-01-05T06:48:09.214Z,-1.80
2023-01-05T06:50:39.354Z,-1.80
2023-01-05T06:53:11.374Z,-1.80
2023-01-05T06:55:41.508Z,-1.80
2023-01-05T06:58:11.600Z,-1.80
2023-01-05T07:00:41.799Z,-1.90
2023-01-05T07:03:15.588Z,-1.90
2023-01-05T07:05:46.280Z,-1.90
2023-01-05T07:08:18.215Z,-1.90
2023-01-05T07:10:48.343Z,-1.90
2023-01-05T07:13:18.490Z,-1.90
2023-01-05T07:15:48.620Z,-1.90
2023-01-05T07:18:18.766Z,-1.90
2023-01-05T07:20:48.936Z,-1.90
2023-01-05T07:23:20.992Z,-2.00
2023-01-05T07:25:51.114Z,-1.90
2023-01-05T07:28:21.196Z,-1.90
2023-01-05T07:30:54.585Z,-1.90
2023-01-05T07:33:24.701Z,-1.90
2023-01-05T07:35:54.895Z,-1.90
2023-01-05T07:38:26.609Z,-1.90
2023-01-05T07:40:56.891Z,-2.00
2023-01-05T07:43:26.994Z,-2.00
2023-01-05T07:46:00.907Z,-2.00
2023-01-05T07:48:31.337Z,-2.00
2023-01-05T07:51:03.639Z,-2.00
2023-01-05T07:53:43.916Z,-2.00
2023-01-05T07:56:15.582Z,-2.00
2023-01-05T07:58:45.844Z,-2.10
2023-01-05T08:01:18.503Z,-2.00
2023-01-05T08:03:48.946Z,-2.00
2023-01-05T08:06:21.376Z,-2.00
2023-01-05T08:08:53.188Z,-2.10
2023-01-05T08:11:22.829Z,-2.10
2023-01-05T08:14:03.104Z,-2.10
2023-01-05T08:16:35.775Z,-2.20
2023-01-05T08:19:10.842Z,-2.20
2023-01-05T08:21:41.532Z,-2.20
2023-01-05T08:24:13.690Z,-2.20
2023-01-05T08:26:44.070Z,-2.20
2023-01-05T08:29:14.178Z,-2.20
2023-01-05T08:31:44.386Z,-2.20
2023-01-05T08:34:15.047Z,-2.30
2023-01-05T08:36:45.256Z,-2.30
2023-01-05T08:39:16.948Z,-2.40
2023-01-05T08:41:47.215Z,-2.30
2023-01-05T08:44:17.465Z,-2.30
2023-01-05T08:46:47.644Z,-2.40
2023-01-05T08:49:17.791Z,-2.40
2023-01-05T08:51:47.927Z,-2.40
2023-01-05T08:54:19.678Z,-2.30
2023-01-05T08:56:51.363Z,-2.30
2023-01-05T08:59:21.508Z,-2.20
2023-01-05T09:01:52.215Z,-2.20
2023-01-05T09:04:22.711Z,-2.10
2023-01-05T09:06:53.864Z,-2.20
2023-01-05T09:09:26.465Z,-2.10
2023-01-05T09:12:02.579Z,-2.10
2023-01-05T09:14:32.700Z,-2.10
2023-01-05T09:17:07.689Z,-2.10
2023-01-05T09:19:38.683Z,-2.20
2023-01-05T09:22:08.853Z,-2.10
2023-01-05T09:24:40.564Z,-2.10
2023-01-05T09:27:10.691Z,-2.20
2023-01-05T09:29:40.776Z,-2.20
2023-01-05T09:32:12.136Z,-2.20
2023-01-05T09:34:42.184Z,-2.30
2023-01-05T09:37:12.591Z,-2.30
2023-01-05T09:39:44.344Z,-2.30
2023-01-05T09:42:18.355Z,-2.30
2023-01-05T09:44:56.968Z,-2.30
2023-01-05T09:47:33.113Z,-2.30
2023-01-05T09:50:03.693Z,-2.40
2023-01-05T09:52:38.057Z,-2.40
2023-01-05T09:55:17.919Z,-2.40
2023-01-05T09:57:55.749Z,-2.40
2023-01-05T10:00:27.654Z,-2.40
2023-01-05T10:03:01.624Z,-2.40
2023-01-05T10:05:34.368Z,-2.40
2023-01-05T10:08:07.274Z,-2.30
2023-01-05T10:10:47.063Z,-2.40
2023-01-05T10:13:27.956Z,-2.30
2023-01-05T10:15:58.531Z,-2.30
2023-01-05T10:18:30.261Z,-2.20
2023-01-05T10:21:08.856Z,-2.20
2023-01-05T10:23:55.537Z,-2.30
2023-01-05T10:26:51.068Z,-2.20
2023-01-05T10:29:25.331Z,-2.20
2023-01-05T10:32:01.803Z,-2.20
2023-01-05T10:34:51.950Z,-2.20
2023-01-05T10:37:44.921Z,-2.20
2023-01-05T10:40:28.424Z,-2.20
2023-01-05T10:43:21.945Z,-2.20
2023-01-05T10:46:28.542Z,-2.20
2023-01-05T10:48:43.358Z,-2.20
2023-01-05T10:51:13.694Z,-2.20
2023-01-05T10:53:46.006Z,-2.20
2023-01-05T10:58:32.188Z,-2.20
2023-01-05T11:01:06.101Z,-2.20
2023-01-05T11:06:34.571Z,-2.20
2023-01-05T11:09:22.342Z,-2.10
2023-01-05T11:12:00.527Z,-2.10
2023-01-05T11:14:35.699Z,-2.10
2023-01-05T11:17:08.610Z,-2.00
2023-01-05T11:19:43.225Z,-2.10
2023-01-05T11:22:31.403Z,-2.00
2023-01-05T11:25:31.848Z,-2.00
2023-01-05T11:28:25.538Z,-2.00
2023-01-05T11:31:05.227Z,-2.00
2023-01-05T11:33:40.124Z,-2.00
2023-01-05T11:36:15.696Z,-2.00
2023-01-05T11:38:46.010Z,-2.00
2023-01-05T11:41:16.397Z,-2.00
2023-01-05T11:43:50.114Z,-2.10
2023-01-05T11:46:22.232Z,-2.10
2023-01-05T11:48:56.664Z,-2.10
2023-01-05T11:51:37.447Z,-2.10
2023-01-05T11:54:07.974Z,-2.10
2023-01-05T11:56:38.731Z,-2.10
2023-01-05T11:59:31.827Z,-2.10
2023-01-05T12:02:28.386Z,-2.20
2023-01-05T12:05:20.118Z,-2.20
2023-01-05T12:07:54.768Z,-2.20
2023-01-05T12:10:46.366Z,-2.20
2023-01-05T12:13:30.107Z,-2.20
2023-01-05T12:16:24.025Z,-2.20
2023-01-05T12:19:28.797Z,-2.20
2023-01-05T12:22:17.772Z,-2.20
2023-01-05T12:25:06.102Z,-2.20
2023-01-05T12:27:48.079Z,-2.20
2023-01-05T12:32:55.073Z,-2.20
2023-01-05T12:34:03.312Z,-2.20
2023-01-05T12:36:47.159Z,-2.20
2023-01-05T12:39:42.579Z,-2.20
2023-01-05T12:42:44.502Z,-2.20
2023-01-05T12:45:37.079Z,-2.20
2023-01-05T12:48:11.133Z,-2.20
2023-01-05T12:50:45.168Z,-2.20
2023-01-05T12:53:25.319Z,-2.20
2023-01-05T12:55:59.632Z,-2.20
2023-01-05T12:58:37.498Z,-2.30
2023-01-05T13:01:13.306Z,-2.30
2023-01-05T13:03:50.677Z,-2.30
2023-01-05T13:06:24.947Z,-2.30
2023-01-05T13:09:00.519Z,-2.20
2023-01-05T13:11:34.206Z,-2.30
2023-01-05T13:14:08.575Z,-2.20
2023-01-05T13:16:42.573Z,-2.30
2023-01-05T13:19:20.687Z,-2.30
2023-01-05T13:21:51.561Z,-2.30
2023-01-05T13:24:30.410Z,-2.30
2023-01-05T13:27:03.817Z,-2.30
2023-01-05T13:29:37.184Z,-2.30
2023-01-05T13:32:28.255Z,-2.30
2023-01-05T13:35:22.570Z,-2.30
2023-01-05T13:38:09.461Z,-2.30
2023-01-05T13:41:04.138Z,-2.30
2023-01-05T13:43:47.411Z,-2.30
2023-01-05T13:46:44.672Z,-2.30
2023-01-05T13:49:41.241Z,-2.30
2023-01-05T13:52:24.508Z,-2.30
2023-01-05T13:55:02.629Z,-2.30
2023-01-05T13:57:42.042Z,-2.30
2023-01-05T14:00:24.979Z,-2.30
2023-01-05T14:03:08.543Z,-2.30
2023-01-05T14:05:49.909Z,-2.40
2023-01-05T14:08:28.545Z,-2.30
2023-01-05T14:11:14.821Z,-2.30
2023-01-05T14:13:49.423Z,-2.20
2023-01-05T14:16:57.527Z,-2.20
2023-01-05T14:19:47.628Z,-2.20
2023-01-05T14:22:39.482Z,-2.20
2023-01-05T14:25:50.124Z,-2.20
2023-01-05T14:28:25.889Z,-2.10
2023-01-05T14:31:45.976Z,-2.10
2023-01-05T14:34:18.579Z,-2.10
2023-01-05T14:37:01.543Z,-2.00
2023-01-05T14:39:38.168Z,-2.00
2023-01-05T14:42:18.476Z,-2.00
2023-01-05T14:44:52.023Z,-2.00
2023-01-05T14:47:40.444Z,-2.00
2023-01-05T14:50:30.228Z,-2.00
2023-01-05T14:53:03.575Z,-2.00
2023-01-05T14:55:39.963Z,-2.00
2023-01-05T14:58:37.391Z,-1.90
2023-01-05T15:01:21.336Z,-2.00
2023-01-05T15:03:56.490Z,-1.90
2023-01-05T15:06:33.276Z,-1.90
2023-01-05T15:09:27.700Z,-1.80
2023-01-05T15:12:24.594Z,-1.80
2023-01-05T15:15:24.663Z,-1.80
2023-01-05T15:21:37.926Z,-1.60
2023-01-05T15:24:46.921Z,-1.60
2023-01-05T15:27:38.547Z,-1.60
2023-01-05T15:30:35.130Z,-1.60
2023-01-05T15:33:15.469Z,-1.60
2023-01-05T15:35:51.601Z,-1.70
2023-01-05T15:38:27.180Z,-1.70
2023-01-05T15:41:03.927Z,-1.70
2023-01-05T15:43:35.935Z,-1.70
2023-01-05T15:46:06.553Z,-1.70
2023-01-05T15:48:39.149Z,-1.60
2023-01-05T15:51:12.548Z,-1.60
2023-01-05T15:53:45.001Z,-1.60
2023-01-05T15:56:32.275Z,-1.50
2023-01-05T15:59:04.149Z,-1.50
2023-01-05T16:01:34.266Z,-1.50
2023-01-05T16:04:15.824Z,-1.40
2023-01-05T16:06:49.280Z,-1.40
2023-01-05T16:09:29.811Z,-1.30
2023-01-05T16:12:05.647Z,-1.20
2023-01-05T16:14:39.747Z,-1.10
2023-01-05T16:17:15.465Z,-1.00
2023-01-05T16:19:50.262Z,-1.00
2023-01-05T16:22:37.279Z,-0.90
2023-01-05T16:25:10.551Z,-0.90
2023-01-05T16:27:44.186Z,-0.90
2023-01-05T16:30:28.887Z,-0.90
2023-01-05T16:33:00.432Z,-0.90
2023-01-05T16:35:37.384Z,-1.00
2023-01-05T16:38:19.983Z,-1.00
2023-01-05T16:41:13.979Z,-1.10
2023-01-05T16:43:48.672Z,-1.10
2023-01-05T16:46:46.588Z,-1.20
2023-01-05T16:49:43.435Z,-1.20
2023-01-05T16:52:26.019Z,-1.20
2023-01-05T16:55:23.639Z,-1.30
2023-01-05T16:57:58.372Z,-1.40
2023-01-05T17:00:42.566Z,-1.30
2023-01-05T17:03:36.403Z,-1.30
2023-01-05T17:06:07.225Z,-1.30
2023-01-05T17:08:41.178Z,-1.20
2023-01-05T17:11:13.667Z,-1.20
2023-01-05T17:13:47.350Z,-1.20
2023-01-05T17:16:19.854Z,-1.30
2023-01-05T17:18:50.623Z,-1.30
2023-01-05T17:21:22.976Z,-1.30
2023-01-05T17:23:55.140Z,-1.30
2023-01-05T17:26:27.941Z,-1.30
2023-01-05T17:29:00.832Z,-1.20
2023-01-05T17:31:32.572Z,-1.20
2023-01-05T17:34:03.256Z,-1.10
2023-01-05T17:36:35.476Z,-1.10
2023-01-05T17:39:06.516Z,-1.00
2023-01-05T17:44:06.992Z,-1.00
2023-01-05T17:46:41.738Z,-1.00
2023-01-05T17:49:16.595Z,-1.00
2023-01-05T17:51:47.313Z,-0.90
2023-01-05T17:54:17.758Z,-0.90
2023-01-05T17:56:49.067Z,-1.00
2023-01-05T17:59:19.293Z,-1.00
2023-01-05T18:01:51.025Z,-1.10
2023-01-05T18:04:21.276Z,-1.20
2023-01-05T18:07:01.663Z,-1.10
2023-01-05T18:09:35.453Z,-1.10
2023-01-05T18:12:05.779Z,-1.20
2023-01-05T18:14:35.956Z,-1.20
2023-01-05T18:17:07.741Z,-1.20
2023-01-05T18:19:38.068Z,-1.20
2023-01-05T18:22:08.170Z,-1.20
2023-01-05T18:24:38.444Z,-1.20
2023-01-05T18:27:09.963Z,-1.20
2023-01-05T18:29:41.179Z,-1.30
2023-01-05T18:32:13.390Z,-1.20
2023-01-05T18:34:43.535Z,-1.20
2023-01-05T18:37:21.391Z,-1.30
2023-01-05T18:39:52.189Z,-1.20
2023-01-05T18:42:22.316Z,-1.20
2023-01-05T18:44:52.533Z,-1.20
2023-01-05T18:47:24.258Z,-1.30
2023-01-05T18:49:57.876Z,-1.20
2023-01-05T18:52:28.899Z,-1.20
2023-01-05T18:54:59.084Z,-1.30
2023-01-05T18:57:30.058Z,-1.20
2023-01-05T19:00:00.416Z,-1.20
2023-01-05T19:02:32.483Z,-1.20
2023-01-05T19:05:02.835Z,-1.20
2023-01-05T19:07:33.051Z,-1.20
2023-01-05T19:10:03.316Z,-1.30
2023-01-05T19:12:33.461Z,-1.20
2023-01-05T19:15:03.644Z,-1.20
2023-01-05T19:17:35.635Z,-1.30
2023-01-05T19:20:06.136Z,-1.30
2023-01-05T19:22:36.615Z,-1.30
2023-01-05T19:25:07.759Z,-1.40
2023-01-05T19:27:37.826Z,-1.40
2023-01-05T19:30:08.771Z,-1.40
2023-01-05T19:32:40.502Z,-1.30
2023-01-05T19:35:11.062Z,-1.40
2023-01-05T19:37:42.983Z,-1.40
2023-01-05T19:40:14.481Z,-1.40
2023-01-05T19:42:44.601Z,-1.40
2023-01-05T19:45:15.180Z,-1.30
2023-01-05T19:47:47.425Z,-1.30
2023-01-05T19:50:17.683Z,-1.20
2023-01-05T19:52:47.820Z,-1.20
2023-01-05T19:55:18.241Z,-1.20
2023-01-05T19:57:48.842Z,-1.20
2023-01-05T20:00:19.993Z,-1.20
2023-01-05T20:02:52.089Z,-1.20
2023-01-05T20:05:22.391Z,-1.20
2023-01-05T20:07:52.497Z,-1.20
2023-01-05T20:10:23.142Z,-1.30
2023-01-05T20:12:54.237Z,-1.30
2023-01-05T20:15:24.864Z,-1.30
2023-01-05T20:17:56.588Z,-1.30
2023-01-05T20:20:26.721Z,-1.30
2023-01-05T20:22:57.131Z,-1.30
2023-01-05T20:25:27.256Z,-1.30
2023-01-05T20:27:57.500Z,-1.30
2023-01-05T20:30:27.721Z,-1.30
2023-01-05T20:32:59.454Z,-1.40
2023-01-05T20:35:29.632Z,-1.40
2023-01-05T20:37:59.837Z,-1.40
2023-01-05T20:40:31.277Z,-1.40
2023-01-05T20:43:01.432Z,-1.40
2023-01-05T20:45:31.598Z,-1.40
2023-01-05T20:48:03.565Z,-1.40
2023-01-05T20:50:33.762Z,-1.40
2023-01-05T20:53:03.847Z,-1.40
2023-01-05T20:55:34.241Z,-1.40
2023-01-05T20:58:04.553Z,-1.40
2023-01-05T21:00:34.871Z,-1.40
2023-01-05T21:03:26.583Z,-1.40
2023-01-05T21:05:56.873Z,-1.40
2023-01-05T21:08:27.261Z,-1.40
2023-01-05T21:10:58.481Z,-1.40
2023-01-05T21:13:32.249Z,-1.40
2023-01-05T21:16:05.075Z,-1.40
2023-01-05T21:18:36.857Z,-1.30
2023-01-05T21:21:08.463Z,-1.30
2023-01-05T21:23:38.595Z,-1.30
2023-01-05T21:26:12.756Z,-1.30
2023-01-05T21:28:44.509Z,-1.30
2023-01-05T21:31:16.866Z,-1.30
2023-01-05T21:33:49.147Z,-1.30
2023-01-05T21:36:20.630Z,-1.40
2023-01-05T21:39:01.712Z,-1.30
2023-01-05T21:41:51.078Z,-1.30
2023-01-05T21:44:21.971Z,-1.30
2023-01-05T21:46:52.684Z,-1.40
2023-01-05T21:49:24.784Z,-1.40
2023-01-05T21:52:11.545Z,-1.40
2023-01-05T21:54:58.831Z,-1.40
2023-01-05T21:57:29.626Z,-1.40
2023-01-05T21:59:59.954Z,-1.40
2023-01-05T22:02:30.232Z,-1.50
2023-01-05T22:05:01.989Z,-1.50
2023-01-05T22:07:32.344Z,-1.50
2023-01-05T22:10:02.489Z,-1.50
2023-01-05T22:12:32.690Z,-1.50
2023-01-05T22:15:03.178Z,-1.50
2023-01-05T22:17:34.936Z,-1.50
2023-01-05T22:20:24.457Z,-1.50
2023-01-05T22:22:54.744Z,-1.50
2023-01-05T22:25:24.934Z,-1.50
2023-01-05T22:27:55.241Z,-1.50
2023-01-05T22:30:26.718Z,-1.50
2023-01-05T22:32:57.087Z,-1.40
2023-01-05T22:35:29.345Z,-1.40
2023-01-05T22:37:59.535Z,-1.40
2023-01-05T22:40:29.730Z,-1.40
2023-01-05T22:43:00.297Z,-1.40
2023-01-05T22:45:30.482Z,-1.40
2023-01-05T22:48:00.692Z,-1.40
2023-01-05T22:50:32.378Z,-1.40
2023-01-05T22:53:02.511Z,-1.40
2023-01-05T22:55:32.697Z,-1.40
2023-01-05T22:58:03.307Z,-1.40
2023-01-05T23:00:33.712Z,-1.40
2023-01-05T23:03:03.942Z,-1.50
2023-01-05T23:05:39.505Z,-1.40
2023-01-05T23:08:10.269Z,-1.40
2023-01-05T23:10:40.475Z,-1.40
2023-01-05T23:13:10.775Z,-1.40
2023-01-05T23:15:41.071Z,-1.50
2023-01-05T23:18:11.282Z,-1.50
2023-01-05T23:20:42.948Z,-1.40
2023-01-05T23:23:13.133Z,-1.50
2023-01-05T23:25:51.126Z,-1.50
2023-01-05T23:28:22.320Z,-1.50
2023-01-05T23:30:54.405Z,-1.50
2023-01-05T23:33:27.221Z,-1.50
2023-01-05T23:35:59.991Z,-1.60
2023-01-05T23:38:34.370Z,-1.60
2023-01-05T23:41:08.806Z,-1.60
2023-01-05T23:43:40.986Z,-1.60
2023-01-05T23:46:12.693Z,-1.60
2023-01-05T23:48:42.882Z,-1.60
2023-01-05T23:51:17.085Z,-1.60
2023-01-05T23:53:49.768Z,-1.60
2023-01-05T23:56:21.698Z,-1.60
2023-01-05T23:58:56.331Z,-1.60
